sensor_id;sensor_type;location;lat;lon;timestamp;pressure;altitude;pressure_sealevel;temperature;humidity
4167;BME280;2097;51.104;7.150;2023-02-14T00:00:27;100695.59;;;3.92;100.00
4167;BME280;2097;51.104;7.150;2023-02-14T00:02:54;100632.28;;;3.55;100.00
4167;BME280;2097;51.104;7.150;2023-02-14T00:05:21;100691.31;;;3.91;100.00
4167;BME280;2097;51.104;7.150;2023-02-14T00:07:48;100564.72;;;3.18;100.00
4167;BME280;2097;51.104;7.150;2023-02-14T00:10:15;100691.31;;;4.00;100.00
4167;BME280;2097;51.104;7.150;2023-02-14T00:12:42;100699.84;;;4.05;100.00
4167;BME280;2097;51.104;7.150;2023-02-14T00:15:09;100687.00;;;4.07;100.00
4167;BME280;2097;51.104;7.150;2023-02-14T00:17:48;100663.94;;;3.90;100.00
4167;BME280;2097;51.104;7.150;2023-02-14T00:20:15;100612.63;;;3.63;100.00
4167;BME280;2097;51.104;7.150;2023-02-14T00:22:42;100697.28;;;4.07;100.00
4167;BME280;2097;51.104;7.150;2023-02-14T00:25:09;100685.31;;;4.00;100.00
4167;BME280;2097;51.104;7.150;2023-02-14T00:27:36;100689.59;;;3.95;100.00
4167;BME280;2097;51.104;7.150;2023-02-14T00:30:04;100695.59;;;3.92;100.00
4167;BME280;2097;51.104;7.150;2023-02-14T00:32:31;100687.91;;;3.86;100.00
4167;BME280;2097;51.104;7.150;2023-02-14T00:34:59;100687.88;;;3.77;100.00
4167;BME280;2097;51.104;7.150;2023-02-14T00:37:26;100574.13;;;3.04;100.00
4167;BME280;2097;51.104;7.150;2023-02-14T00:39:53;100663.09;;;3.55;100.00
4167;BME280;2097;51.104;7.150;2023-02-14T00:42:20;100682.75;;;3.65;100.00
4167;BME280;2097;51.104;7.150;2023-02-14T00:44:46;100685.34;;;3.67;100.00
4167;BME280;2097;51.104;7.150;2023-02-14T00:47:13;100680.19;;;3.64;100.00
4167;BME280;2097;51.104;7.150;2023-02-14T00:49:40;100623.75;;;3.34;100.00
4167;BME280;2097;51.104;7.150;2023-02-14T00:52:08;100624.59;;;3.36;100.00
4167;BME280;2097;51.104;7.150;2023-02-14T00:54:35;100675.03;;;3.65;100.00
4167;BME280;2097;51.104;7.150;2023-02-14T00:57:02;100562.16;;;3.00;100.00
4167;BME280;2097;51.104;7.150;2023-02-14T00:59:29;100616.03;;;3.31;100.00
4167;BME280;2097;51.104;7.150;2023-02-14T01:01:55;100671.63;;;3.68;100.00
4167;BME280;2097;51.104;7.150;2023-02-14T01:04:22;100667.34;;;3.68;100.00
4167;BME280;2097;51.104;7.150;2023-02-14T01:06:49;100675.91;;;3.66;100.00
4167;BME280;2097;51.104;7.150;2023-02-14T01:09:17;100681.03;;;3.67;100.00
4167;BME280;2097;51.104;7.150;2023-02-14T01:11:45;100680.19;;;3.67;100.00
4167;BME280;2097;51.104;7.150;2023-02-14T01:14:13;100599.78;;;3.22;100.00
4167;BME280;2097;51.104;7.150;2023-02-14T01:16:40;100679.34;;;3.65;100.00
4167;BME280;2097;51.104;7.150;2023-02-14T01:19:06;100670.78;;;3.66;100.00
4167;BME280;2097;51.104;7.150;2023-02-14T01:21:34;100675.03;;;3.68;100.00
4167;BME280;2097;51.104;7.150;2023-02-14T01:24:04;100669.91;;;3.68;100.00
4167;BME280;2097;51.104;7.150;2023-02-14T01:26:33;100584.38;;;3.13;100.00
4167;BME280;2097;51.104;7.150;2023-02-14T01:29:00;100670.75;;;3.64;100.00
4167;BME280;2097;51.104;7.150;2023-02-14T01:31:30;100668.22;;;3.63;100.00
4167;BME280;2097;51.104;7.150;2023-02-14T01:33:57;100666.50;;;3.62;100.00
4167;BME280;2097;51.104;7.150;2023-02-14T01:36:27;100669.09;;;3.63;100.00
4167;BME280;2097;51.104;7.150;2023-02-14T01:38:56;100666.53;;;3.63;100.00
4167;BME280;2097;51.104;7.150;2023-02-14T01:41:25;100664.81;;;3.62;100.00
4167;BME280;2097;51.104;7.150;2023-02-14T01:43:57;100612.59;;;3.33;100.00
4167;BME280;2097;51.104;7.150;2023-02-14T01:46:25;100671.63;;;3.65;100.00
4167;BME280;2097;51.104;7.150;2023-02-14T01:48:54;100673.34;;;3.66;100.00
4167;BME280;2097;51.104;7.150;2023-02-14T01:51:23;100673.34;;;3.64;100.00
4167;BME280;2097;51.104;7.150;2023-02-14T01:53:51;100669.94;;;3.59;100.00
4167;BME280;2097;51.104;7.150;2023-02-14T01:56:20;100585.25;;;3.01;100.00
4167;BME280;2097;51.104;7.150;2023-02-14T01:58:54;100522.81;;;2.75;100.00
4167;BME280;2097;51.104;7.150;2023-02-14T02:01:23;100658.81;;;3.51;100.00
4167;BME280;2097;51.104;7.150;2023-02-14T02:03:53;100634.00;;;3.27;100.00
4167;BME280;2097;51.104;7.150;2023-02-14T02:06:24;100657.94;;;3.40;100.00
4167;BME280;2097;51.104;7.150;2023-02-14T02:09:01;100648.53;;;3.35;100.00
4167;BME280;2097;51.104;7.150;2023-02-14T02:11:31;100646.81;;;3.33;100.00
4167;BME280;2097;51.104;7.150;2023-02-14T02:14:00;100653.66;;;3.33;100.00
4167;BME280;2097;51.104;7.150;2023-02-14T02:16:47;100644.25;;;3.34;100.00
4167;BME280;2097;51.104;7.150;2023-02-14T02:22:48;100638.25;;;3.39;100.00
4167;BME280;2097;51.104;7.150;2023-02-14T02:25:37;100633.13;;;3.36;100.00
4167;BME280;2097;51.104;7.150;2023-02-14T02:28:23;100628.00;;;3.31;100.00
4167;BME280;2097;51.104;7.150;2023-02-14T02:31:21;100631.41;;;3.30;100.00
4167;BME280;2097;51.104;7.150;2023-02-14T02:37:13;100533.94;;;2.76;100.00
4167;BME280;2097;51.104;7.150;2023-02-14T02:39:57;100598.06;;;3.13;100.00
4167;BME280;2097;51.104;7.150;2023-02-14T02:42:34;100634.00;;;3.31;100.00
4167;BME280;2097;51.104;7.150;2023-02-14T02:45:10;100513.41;;;2.59;100.00
4167;BME280;2097;51.104;7.150;2023-02-14T02:47:43;100625.44;;;3.26;100.00
4167;BME280;2097;51.104;7.150;2023-02-14T02:50:19;100566.41;;;2.92;100.00
4167;BME280;2097;51.104;7.150;2023-02-14T02:53:13;100480.06;;;2.41;100.00
4167;BME280;2097;51.104;7.150;2023-02-14T02:55:44;100624.59;;;3.30;100.00
4167;BME280;2097;51.104;7.150;2023-02-14T02:58:35;100628.84;;;3.35;100.00
4167;BME280;2097;51.104;7.150;2023-02-14T03:01:08;100622.88;;;3.38;100.00
4167;BME280;2097;51.104;7.150;2023-02-14T03:03:36;100618.59;;;3.41;100.00
4167;BME280;2097;51.104;7.150;2023-02-14T03:06:22;100566.44;;;3.10;100.00
4167;BME280;2097;51.104;7.150;2023-02-14T03:08:51;100532.25;;;2.87;100.00
4167;BME280;2097;51.104;7.150;2023-02-14T03:11:17;100623.72;;;3.38;100.00
4167;BME280;2097;51.104;7.150;2023-02-14T03:14:00;100616.03;;;3.34;100.00
4167;BME280;2097;51.104;7.150;2023-02-14T03:16:42;100619.47;;;3.33;100.00
4167;BME280;2097;51.104;7.150;2023-02-14T03:19:40;100611.75;;;3.30;100.00
4167;BME280;2097;51.104;7.150;2023-02-14T03:22:33;100610.88;;;3.30;100.00
4167;BME280;2097;51.104;7.150;2023-02-14T03:25:17;100622.00;;;3.37;100.00
4167;BME280;2097;51.104;7.150;2023-02-14T03:27:53;100621.16;;;3.38;100.00
4167;BME280;2097;51.104;7.150;2023-02-14T03:30:26;100619.44;;;3.37;100.00
4167;BME280;2097;51.104;7.150;2023-02-14T03:33:00;100344.28;;;1.74;100.00
4167;BME280;2097;51.104;7.150;2023-02-14T03:35:33;100622.00;;;3.37;100.00
4167;BME280;2097;51.104;7.150;2023-02-14T03:38:06;100616.88;;;3.34;100.00
4167;BME280;2097;51.104;7.150;2023-02-14T03:40:39;100612.63;;;3.35;100.00
4167;BME280;2097;51.104;7.150;2023-02-14T03:43:10;100618.59;;;3.35;100.00
4167;BME280;2097;51.104;7.150;2023-02-14T03:45:41;100610.91;;;3.35;100.00
4167;BME280;2097;51.104;7.150;2023-02-14T03:48:12;100498.91;;;2.64;100.00
4167;BME280;2097;51.104;7.150;2023-02-14T03:50:41;100616.03;;;3.33;100.00
4167;BME280;2097;51.104;7.150;2023-02-14T03:53:12;100345.94;;;1.71;100.00
4167;BME280;2097;51.104;7.150;2023-02-14T03:55:48;100466.41;;;2.44;100.00
4167;BME280;2097;51.104;7.150;2023-02-14T03:58:21;100608.31;;;3.30;100.00
4167;BME280;2097;51.104;7.150;2023-02-14T04:00:51;100603.22;;;3.28;100.00
4167;BME280;2097;51.104;7.150;2023-02-14T04:03:22;100610.06;;;3.25;100.00
4167;BME280;2097;51.104;7.150;2023-02-14T04:05:50;100616.03;;;3.24;100.00
4167;BME280;2097;51.104;7.150;2023-02-14T04:08:21;100616.91;;;3.23;100.00
4167;BME280;2097;51.104;7.150;2023-02-14T04:10:50;100451.03;;;2.24;100.00
4167;BME280;2097;51.104;7.150;2023-02-14T04:13:18;100497.16;;;2.56;100.00
4167;BME280;2097;51.104;7.150;2023-02-14T04:15:45;100609.19;;;3.26;100.00
4167;BME280;2097;51.104;7.150;2023-02-14T04:18:12;100612.63;;;3.22;100.00
4167;BME280;2097;51.104;7.150;2023-02-14T04:20:56;100514.25;;;2.60;100.00
4167;BME280;2097;51.104;7.150;2023-02-14T04:23:23;100499.72;;;2.48;100.00
4167;BME280;2097;51.104;7.150;2023-02-14T04:25:51;100613.44;;;3.19;100.00
4167;BME280;2097;51.104;7.150;2023-02-14T04:28:18;100540.75;;;2.71;100.00
4167;BME280;2097;51.104;7.150;2023-02-14T04:30:45;100610.03;;;3.13;100.00
4167;BME280;2097;51.104;7.150;2023-02-14T04:33:11;100611.75;;;3.09;100.00
4167;BME280;2097;51.104;7.150;2023-02-14T04:35:38;100609.16;;;3.08;100.00
4167;BME280;2097;51.104;7.150;2023-02-14T04:38:05;100545.03;;;2.67;100.00
4167;BME280;2097;51.104;7.150;2023-02-14T04:40:32;100503.13;;;2.43;100.00
4167;BME280;2097;51.104;7.150;2023-02-14T04:43:00;100604.03;;;3.02;100.00
4167;BME280;2097;51.104;7.150;2023-02-14T04:45:29;100597.19;;;2.98;100.00
4167;BME280;2097;51.104;7.150;2023-02-14T04:47:55;100604.03;;;2.99;100.00
4167;BME280;2097;51.104;7.150;2023-02-14T04:50:22;100451.03;;;2.17;100.00
4167;BME280;2097;51.104;7.150;2023-02-14T04:52:50;100602.31;;;3.01;100.00
4167;BME280;2097;51.104;7.150;2023-02-14T04:55:17;100195.69;;;0.67;100.00
4167;BME280;2097;51.104;7.150;2023-02-14T04:57:44;100604.91;;;2.99;100.00
4167;BME280;2097;51.104;7.150;2023-02-14T05:00:14;100591.19;;;2.96;100.00
4167;BME280;2097;51.104;7.150;2023-02-14T05:02:40;100531.34;;;2.56;100.00
4167;BME280;2097;51.104;7.150;2023-02-14T05:05:07;100435.59;;;2.04;100.00
4167;BME280;2097;51.104;7.150;2023-02-14T05:07:34;100586.91;;;2.95;100.00
4167;BME280;2097;51.104;7.150;2023-02-14T05:10:01;100475.78;;;2.27;100.00
4167;BME280;2097;51.104;7.150;2023-02-14T05:12:28;100433.03;;;2.07;100.00
4167;BME280;2097;51.104;7.150;2023-02-14T05:14:55;100532.19;;;2.63;100.00
4167;BME280;2097;51.104;7.150;2023-02-14T05:17:23;100585.22;;;2.94;100.00
4167;BME280;2097;51.104;7.150;2023-02-14T05:19:50;100584.38;;;2.93;100.00
4167;BME280;2097;51.104;7.150;2023-02-14T05:22:17;100578.38;;;2.91;100.00
4167;BME280;2097;51.104;7.150;2023-02-14T05:24:44;100575.84;;;2.90;100.00
4167;BME280;2097;51.104;7.150;2023-02-14T05:27:11;100528.78;;;2.64;100.00
4167;BME280;2097;51.104;7.150;2023-02-14T05:29:37;100570.69;;;2.88;100.00
4167;BME280;2097;51.104;7.150;2023-02-14T05:32:04;100565.56;;;2.91;100.00
4167;BME280;2097;51.104;7.150;2023-02-14T05:34:32;100487.75;;;2.35;100.00
4167;BME280;2097;51.104;7.150;2023-02-14T05:36:59;100570.69;;;2.84;100.00
4167;BME280;2097;51.104;7.150;2023-02-14T05:39:27;100568.97;;;2.83;100.00
4167;BME280;2097;51.104;7.150;2023-02-14T05:41:54;100566.41;;;2.83;100.00
4167;BME280;2097;51.104;7.150;2023-02-14T05:44:21;100561.28;;;2.84;100.00
4167;BME280;2097;51.104;7.150;2023-02-14T05:46:48;100562.13;;;2.86;100.00
4167;BME280;2097;51.104;7.150;2023-02-14T05:49:15;100561.31;;;2.86;100.00
4167;BME280;2097;51.104;7.150;2023-02-14T05:51:43;100567.28;;;2.85;100.00
4167;BME280;2097;51.104;7.150;2023-02-14T05:54:10;100368.13;;;1.70;100.00
4167;BME280;2097;51.104;7.150;2023-02-14T05:56:37;100569.00;;;2.86;100.00
4167;BME280;2097;51.104;7.150;2023-02-14T05:59:04;100560.44;;;2.88;100.00
4167;BME280;2097;51.104;7.150;2023-02-14T06:01:30;100564.72;;;2.88;100.00
4167;BME280;2097;51.104;7.150;2023-02-14T06:03:57;100569.00;;;2.86;100.00
4167;BME280;2097;51.104;7.150;2023-02-14T06:06:24;100560.44;;;2.85;100.00
4167;BME280;2097;51.104;7.150;2023-02-14T06:08:52;100568.97;;;2.83;100.00
4167;BME280;2097;51.104;7.150;2023-02-14T06:11:19;100568.13;;;2.81;100.00
4167;BME280;2097;51.104;7.150;2023-02-14T06:13:46;100568.94;;;2.78;100.00
4167;BME280;2097;51.104;7.150;2023-02-14T06:16:12;100569.81;;;2.77;100.00
4167;BME280;2097;51.104;7.150;2023-02-14T06:18:39;100513.38;;;2.37;100.00
4167;BME280;2097;51.104;7.150;2023-02-14T06:21:06;100575.78;;;2.72;100.00
4167;BME280;2097;51.104;7.150;2023-02-14T06:23:33;100372.31;;;1.47;100.00
4167;BME280;2097;51.104;7.150;2023-02-14T06:26:01;100387.66;;;1.47;100.00
4167;BME280;2097;51.104;7.150;2023-02-14T06:28:28;100467.16;;;1.98;100.00
4167;BME280;2097;51.104;7.150;2023-02-14T06:30:55;100578.34;;;2.69;100.00
4167;BME280;2097;51.104;7.150;2023-02-14T06:33:21;100527.03;;;2.31;100.00
4167;BME280;2097;51.104;7.150;2023-02-14T06:35:48;100585.19;;;2.70;100.00
4167;BME280;2097;51.104;7.150;2023-02-14T06:38:15;100598.84;;;2.69;100.00
4167;BME280;2097;51.104;7.150;2023-02-14T06:40:42;100591.19;;;2.70;100.00
4167;BME280;2097;51.104;7.150;2023-02-14T06:43:10;100583.47;;;2.69;100.00
4167;BME280;2097;51.104;7.150;2023-02-14T06:45:37;100590.31;;;2.73;100.00
4167;BME280;2097;51.104;7.150;2023-02-14T06:48:04;100587.75;;;2.77;100.00
4167;BME280;2097;51.104;7.150;2023-02-14T06:50:31;100585.22;;;2.79;100.00
4167;BME280;2097;51.104;7.150;2023-02-14T06:52:58;100579.22;;;2.78;100.00
4167;BME280;2097;51.104;7.150;2023-02-14T06:55:25;100585.22;;;2.82;100.00
4167;BME280;2097;51.104;7.150;2023-02-14T06:57:52;100590.34;;;2.79;100.00
4167;BME280;2097;51.104;7.150;2023-02-14T07:00:21;100587.78;;;2.79;100.00
4167;BME280;2097;51.104;7.150;2023-02-14T07:02:48;100586.91;;;2.77;100.00
4167;BME280;2097;51.104;7.150;2023-02-14T07:05:15;100510.81;;;2.32;100.00
4167;BME280;2097;51.104;7.150;2023-02-14T07:07:43;100543.28;;;2.50;100.00
4167;BME280;2097;51.104;7.150;2023-02-14T07:10:10;100586.06;;;2.78;100.00
4167;BME280;2097;51.104;7.150;2023-02-14T07:12:38;100598.00;;;2.80;100.00
4167;BME280;2097;51.104;7.150;2023-02-14T07:15:05;100591.19;;;2.81;100.00
4167;BME280;2097;51.104;7.150;2023-02-14T07:17:33;100528.75;;;2.43;100.00
4167;BME280;2097;51.104;7.150;2023-02-14T07:20:01;100600.59;;;2.85;100.00
4167;BME280;2097;51.104;7.150;2023-02-14T07:22:28;100513.34;;;2.29;100.00
4167;BME280;2097;51.104;7.150;2023-02-14T07:24:54;100593.78;;;2.90;100.00
4167;BME280;2097;51.104;7.150;2023-02-14T07:27:21;100602.31;;;2.92;100.00
4167;BME280;2097;51.104;7.150;2023-02-14T07:29:48;100599.72;;;2.92;100.00
4167;BME280;2097;51.104;7.150;2023-02-14T07:32:15;100554.44;;;2.65;100.00
4167;BME280;2097;51.104;7.150;2023-02-14T07:34:43;100601.47;;;3.02;100.00
4167;BME280;2097;51.104;7.150;2023-02-14T07:37:10;100580.97;;;2.94;100.00
4167;BME280;2097;51.104;7.150;2023-02-14T07:39:37;100598.91;;;3.11;100.00
4167;BME280;2097;51.104;7.150;2023-02-14T07:42:04;100498.88;;;2.55;100.00
4167;BME280;2097;51.104;7.150;2023-02-14T07:44:32;100597.22;;;3.23;100.00
4167;BME280;2097;51.104;7.150;2023-02-14T07:46:59;100598.94;;;3.30;100.00
4167;BME280;2097;51.104;7.150;2023-02-14T07:49:27;100604.06;;;3.34;100.00
4167;BME280;2097;51.104;7.150;2023-02-14T07:51:55;100592.06;;;3.36;100.00
4167;BME280;2097;51.104;7.150;2023-02-14T07:54:22;100601.50;;;3.43;100.00
4167;BME280;2097;51.104;7.150;2023-02-14T07:56:49;100539.09;;;3.09;100.00
4167;BME280;2097;51.104;7.150;2023-02-14T07:59:16;100594.66;;;3.51;100.00
4167;BME280;2097;51.104;7.150;2023-02-14T08:01:43;100599.75;;;3.59;100.00
4167;BME280;2097;51.104;7.150;2023-02-14T08:04:09;100592.03;;;3.66;100.00
4167;BME280;2097;51.104;7.150;2023-02-14T08:06:38;100592.91;;;3.73;100.00
4167;BME280;2097;51.104;7.150;2023-02-14T08:09:06;100599.75;;;3.81;100.00
4167;BME280;2097;51.104;7.150;2023-02-14T08:11:34;100596.31;;;3.88;100.00
4167;BME280;2097;51.104;7.150;2023-02-14T08:14:19;100602.28;;;3.95;100.00
4167;BME280;2097;51.104;7.150;2023-02-14T08:16:45;100602.25;;;4.04;100.00
4167;BME280;2097;51.104;7.150;2023-02-14T08:19:12;100519.31;;;3.67;100.00
4167;BME280;2097;51.104;7.150;2023-02-14T08:21:39;100600.50;;;4.19;100.00
4167;BME280;2097;51.104;7.150;2023-02-14T08:24:07;100595.34;;;4.25;100.00
4167;BME280;2097;51.104;7.150;2023-02-14T08:26:35;100444.97;;;3.43;100.00
4167;BME280;2097;51.104;7.150;2023-02-14T08:29:01;100517.53;;;3.95;100.00
4167;BME280;2097;51.104;7.150;2023-02-14T08:31:30;100609.81;;;4.46;100.00
4167;BME280;2097;51.104;7.150;2023-02-14T08:33:57;100595.22;;;4.49;100.00
4167;BME280;2097;51.104;7.150;2023-02-14T08:36:24;100574.75;;;4.34;100.00
4167;BME280;2097;51.104;7.150;2023-02-14T08:38:51;100598.59;;;4.60;100.00
4167;BME280;2097;51.104;7.150;2023-02-14T08:41:19;100547.34;;;4.36;100.00
4167;BME280;2097;51.104;7.150;2023-02-14T08:43:46;100595.06;;;4.76;100.00
4167;BME280;2097;51.104;7.150;2023-02-14T08:46:12;100543.84;;;4.46;100.00
4167;BME280;2097;51.104;7.150;2023-02-14T08:48:41;100589.84;;;4.91;100.00
4167;BME280;2097;51.104;7.150;2023-02-14T08:51:09;100530.91;;;4.61;100.00
4167;BME280;2097;51.104;7.150;2023-02-14T08:53:37;100402.00;;;3.87;100.00
4167;BME280;2097;51.104;7.150;2023-02-14T08:56:05;100469.38;;;4.36;100.00
4167;BME280;2097;51.104;7.150;2023-02-14T08:58:34;100557.25;;;4.93;100.00
4167;BME280;2097;51.104;7.150;2023-02-14T09:01:07;100598.19;;;5.24;100.00
4167;BME280;2097;51.104;7.150;2023-02-14T09:03:33;100605.00;;;5.30;100.00
4167;BME280;2097;51.104;7.150;2023-02-14T09:06:02;100603.25;;;5.35;100.00
4167;BME280;2097;51.104;7.150;2023-02-14T09:08:28;100603.25;;;5.38;100.00
4167;BME280;2097;51.104;7.150;2023-02-14T09:10:56;100601.47;;;5.44;100.00
4167;BME280;2097;51.104;7.150;2023-02-14T09:13:22;100598.84;;;5.49;100.00
4167;BME280;2097;51.104;7.150;2023-02-14T09:15:51;100517.69;;;5.09;100.00
4167;BME280;2097;51.104;7.150;2023-02-14T09:18:18;100480.91;;;4.96;100.00
4167;BME280;2097;51.104;7.150;2023-02-14T09:20:44;100598.63;;;5.71;100.00
4167;BME280;2097;51.104;7.150;2023-02-14T09:23:11;100577.97;;;5.77;100.00
4167;BME280;2097;51.104;7.150;2023-02-14T09:25:38;100589.97;;;5.84;100.00
4167;BME280;2097;51.104;7.150;2023-02-14T09:28:05;100582.19;;;5.90;100.00
4167;BME280;2097;51.104;7.150;2023-02-14T09:30:32;100548.81;;;5.73;100.00
4167;BME280;2097;51.104;7.150;2023-02-14T09:33:00;100582.06;;;6.00;100.00
4167;BME280;2097;51.104;7.150;2023-02-14T09:35:28;100581.97;;;6.09;100.00
4167;BME280;2097;51.104;7.150;2023-02-14T09:37:55;100575.88;;;6.16;100.00
4167;BME280;2097;51.104;7.150;2023-02-14T09:40:21;100586.94;;;6.21;100.00
4167;BME280;2097;51.104;7.150;2023-02-14T09:42:59;100586.88;;;6.29;100.00
4167;BME280;2097;51.104;7.150;2023-02-14T09:45:29;100583.38;;;6.36;100.00
4167;BME280;2097;51.104;7.150;2023-02-14T09:48:02;100588.41;;;6.42;100.00
4167;BME280;2097;51.104;7.150;2023-02-14T09:50:34;100582.31;;;6.49;100.00
4167;BME280;2097;51.104;7.150;2023-02-14T09:53:07;100543.81;;;6.35;100.00
4167;BME280;2097;51.104;7.150;2023-02-14T09:55:42;100579.56;;;6.64;100.00
4167;BME280;2097;51.104;7.150;2023-02-14T09:58:15;100577.72;;;6.70;100.00
4167;BME280;2097;51.104;7.150;2023-02-14T10:00:45;100387.38;;;5.77;100.00
4167;BME280;2097;51.104;7.150;2023-02-14T10:03:35;100570.63;;;6.87;100.00
4167;BME280;2097;51.104;7.150;2023-02-14T10:06:11;100567.13;;;6.91;100.00
4167;BME280;2097;51.104;7.150;2023-02-14T10:08:53;100507.38;;;6.59;100.00
4167;BME280;2097;51.104;7.150;2023-02-14T10:11:22;100568.59;;;7.07;100.00
4167;BME280;2097;51.104;7.150;2023-02-14T10:13:53;100562.47;;;7.14;100.00
4167;BME280;2097;51.104;7.150;2023-02-14T10:16:24;100564.09;;;7.19;99.84
4167;BME280;2097;51.104;7.150;2023-02-14T10:18:59;100520.63;;;6.92;99.72
4167;BME280;2097;51.104;7.150;2023-02-14T10:21:31;100559.63;;;7.29;100.00
4167;BME280;2097;51.104;7.150;2023-02-14T10:24:05;100540.78;;;7.24;99.38
4167;BME280;2097;51.104;7.150;2023-02-14T10:26:38;100559.31;;;7.47;99.46
4167;BME280;2097;51.104;7.150;2023-02-14T10:29:07;100559.22;;;7.53;99.06
4167;BME280;2097;51.104;7.150;2023-02-14T10:31:41;100560.84;;;7.58;98.93
4167;BME280;2097;51.104;7.150;2023-02-14T10:34:21;100437.19;;;6.92;98.73
4167;BME280;2097;51.104;7.150;2023-02-14T10:37:02;100562.34;;;7.70;98.87
4167;BME280;2097;51.104;7.150;2023-02-14T10:39:46;100410.50;;;6.93;98.39
4167;BME280;2097;51.104;7.150;2023-02-14T10:42:24;100548.28;;;7.84;97.84
4167;BME280;2097;51.104;7.150;2023-02-14T10:45:04;100442.69;;;7.22;97.23
4167;BME280;2097;51.104;7.150;2023-02-14T10:47:40;100380.38;;;6.95;97.69
4167;BME280;2097;51.104;7.150;2023-02-14T10:50:18;100547.19;;;7.98;97.55
4167;BME280;2097;51.104;7.150;2023-02-14T10:52:52;100095.38;;;5.31;97.26
4167;BME280;2097;51.104;7.150;2023-02-14T10:55:27;100523.91;;;7.98;97.08
4167;BME280;2097;51.104;7.150;2023-02-14T10:58:02;100543.38;;;8.14;96.69
4167;BME280;2097;51.104;7.150;2023-02-14T11:00:31;100543.25;;;8.22;97.00
4167;BME280;2097;51.104;7.150;2023-02-14T11:03:01;100533.66;;;8.28;96.46
4167;BME280;2097;51.104;7.150;2023-02-14T11:05:33;100528.44;;;8.30;96.41
4167;BME280;2097;51.104;7.150;2023-02-14T11:08:01;100506.31;;;8.15;95.78
4167;BME280;2097;51.104;7.150;2023-02-14T11:10:37;100468.06;;;7.90;95.79
4167;BME280;2097;51.104;7.150;2023-02-14T11:13:29;100528.09;;;8.46;95.57
4167;BME280;2097;51.104;7.150;2023-02-14T11:16:01;100453.00;;;8.08;95.51
4167;BME280;2097;51.104;7.150;2023-02-14T11:18:29;100521.78;;;8.58;95.31
4167;BME280;2097;51.104;7.150;2023-02-14T11:21:09;100490.09;;;8.48;94.82
4167;BME280;2097;51.104;7.150;2023-02-14T11:23:39;100517.22;;;8.70;94.59
4167;BME280;2097;51.104;7.150;2023-02-14T11:26:19;100515.41;;;8.74;94.48
4167;BME280;2097;51.104;7.150;2023-02-14T11:28:51;100516.06;;;8.82;94.25
4167;BME280;2097;51.104;7.150;2023-02-14T11:31:30;100508.94;;;8.91;94.12
4167;BME280;2097;51.104;7.150;2023-02-14T11:33:59;100507.94;;;8.97;93.72
4167;BME280;2097;51.104;7.150;2023-02-14T11:36:28;100503.44;;;9.04;93.88
4167;BME280;2097;51.104;7.150;2023-02-14T11:39:01;100499.81;;;9.11;93.46
4167;BME280;2097;51.104;7.150;2023-02-14T11:41:46;100507.44;;;9.17;92.95
4167;BME280;2097;51.104;7.150;2023-02-14T11:44:15;100507.31;;;9.22;93.08
4167;BME280;2097;51.104;7.150;2023-02-14T11:46:47;100417.72;;;8.80;92.68
4167;BME280;2097;51.104;7.150;2023-02-14T11:49:23;100437.06;;;9.01;92.17
4167;BME280;2097;51.104;7.150;2023-02-14T11:51:54;100490.50;;;9.38;92.14
4167;BME280;2097;51.104;7.150;2023-02-14T11:54:28;100473.16;;;9.40;92.10
4167;BME280;2097;51.104;7.150;2023-02-14T11:57:01;100491.75;;;9.55;91.84
4167;BME280;2097;51.104;7.150;2023-02-14T11:59:32;100482.16;;;9.59;91.35
4167;BME280;2097;51.104;7.150;2023-02-14T12:02:03;100439.72;;;9.31;90.94
4167;BME280;2097;51.104;7.150;2023-02-14T12:04:40;100483.78;;;9.63;91.00
4167;BME280;2097;51.104;7.150;2023-02-14T12:07:19;100475.84;;;9.67;90.50
4167;BME280;2097;51.104;7.150;2023-02-14T12:09:48;100473.06;;;9.75;90.73
4167;BME280;2097;51.104;7.150;2023-02-14T12:12:30;100466.88;;;9.80;90.70
4167;BME280;2097;51.104;7.150;2023-02-14T12:15:19;99909.91;;;6.58;89.79
4167;BME280;2097;51.104;7.150;2023-02-14T12:17:53;100422.84;;;9.79;90.06
4167;BME280;2097;51.104;7.150;2023-02-14T12:20:26;100455.72;;;10.07;89.32
4167;BME280;2097;51.104;7.150;2023-02-14T12:23:01;100449.34;;;10.19;88.67
4167;BME280;2097;51.104;7.150;2023-02-14T12:25:39;100448.97;;;10.30;88.16
4167;BME280;2097;51.104;7.150;2023-02-14T12:28:11;100354.44;;;9.83;87.76
4167;BME280;2097;51.104;7.150;2023-02-14T12:30:40;100432.31;;;10.37;87.13
4167;BME280;2097;51.104;7.150;2023-02-14T12:33:15;100432.25;;;10.39;87.09
4167;BME280;2097;51.104;7.150;2023-02-14T12:35:52;100427.94;;;10.39;87.13
4167;BME280;2097;51.104;7.150;2023-02-14T12:38:27;100407.53;;;10.27;86.93
4167;BME280;2097;51.104;7.150;2023-02-14T12:41:01;100399.66;;;10.30;86.77
4167;BME280;2097;51.104;7.150;2023-02-14T12:43:46;100422.16;;;10.57;86.49
4167;BME280;2097;51.104;7.150;2023-02-14T12:46:46;100421.97;;;10.63;86.35
4167;BME280;2097;51.104;7.150;2023-02-14T12:49:28;100416.56;;;10.69;86.23
4167;BME280;2097;51.104;7.150;2023-02-14T12:52:09;100345.06;;;10.33;85.61
4167;BME280;2097;51.104;7.150;2023-02-14T12:54:48;100299.91;;;10.13;85.49
4167;BME280;2097;51.104;7.150;2023-02-14T12:57:27;100325.03;;;10.38;84.66
4167;BME280;2097;51.104;7.150;2023-02-14T13:00:05;100402.22;;;10.85;84.64
4167;BME280;2097;51.104;7.150;2023-02-14T13:05:49;100412.50;;;10.88;84.24
4167;BME280;2097;51.104;7.150;2023-02-14T13:08:31;100403.84;;;10.88;84.07
4167;BME280;2097;51.104;7.150;2023-02-14T13:11:09;100395.00;;;10.93;83.61
4167;BME280;2097;51.104;7.150;2023-02-14T13:13:52;100393.16;;;10.97;83.14
4167;BME280;2097;51.104;7.150;2023-02-14T13:16:25;100324.91;;;10.67;83.02
4167;BME280;2097;51.104;7.150;2023-02-14T13:18:59;100384.88;;;11.10;82.91
4167;BME280;2097;51.104;7.150;2023-02-14T13:21:30;100331.28;;;10.83;82.57
4167;BME280;2097;51.104;7.150;2023-02-14T13:24:06;100383.78;;;11.17;82.42
4167;BME280;2097;51.104;7.150;2023-02-14T13:26:39;100373.31;;;11.19;82.08
4167;BME280;2097;51.104;7.150;2023-02-14T13:29:10;100249.34;;;10.50;81.88
4167;BME280;2097;51.104;7.150;2023-02-14T13:31:39;100327.03;;;11.05;82.15
4167;BME280;2097;51.104;7.150;2023-02-14T13:34:16;100361.63;;;11.30;81.69
4167;BME280;2097;51.104;7.150;2023-02-14T13:36:45;100263.75;;;10.83;81.63
4167;BME280;2097;51.104;7.150;2023-02-14T13:39:20;100351.50;;;11.47;81.51
4167;BME280;2097;51.104;7.150;2023-02-14T13:41:50;100306.34;;;11.27;81.10